sensor_id;sensor_type;location;lat;lon;timestamp;P1;durP1;ratioP1;P2;durP2;ratioP2
37199;SDS011;23096;50.892;16.746;2023-09-30T00:01:12;6.90;;;4.30;;
37199;SDS011;23096;50.892;16.746;2023-09-30T00:03:39;5.60;;;4.40;;
37199;SDS011;23096;50.892;16.746;2023-09-30T00:06:05;11.60;;;5.20;;
37199;SDS011;23096;50.892;16.746;2023-09-30T00:08:30;5.70;;;4.50;;
37199;SDS011;23096;50.892;16.746;2023-09-30T00:10:56;9.90;;;5.90;;
37199;SDS011;23096;50.892;16.746;2023-09-30T00:13:21;8.30;;;5.10;;
37199;SDS011;23096;50.892;16.746;2023-09-30T00:15:47;6.30;;;4.80;;
37199;SDS011;23096;50.892;16.746;2023-09-30T00:18:12;6.40;;;4.40;;
37199;SDS011;23096;50.892;16.746;2023-09-30T00:20:38;6.50;;;4.60;;
37199;SDS011;23096;50.892;16.746;2023-09-30T00:23:04;5.90;;;4.40;;
37199;SDS011;23096;50.892;16.746;2023-09-30T00:25:32;8.60;;;4.70;;
37199;SDS011;23096;50.892;16.746;2023-09-30T00:27:58;7.40;;;4.80;;
37199;SDS011;23096;50.892;16.746;2023-09-30T00:30:23;8.30;;;4.60;;
37199;SDS011;23096;50.892;16.746;2023-09-30T00:32:49;5.70;;;4.20;;
37199;SDS011;23096;50.892;16.746;2023-09-30T00:35:15;9.80;;;4.30;;
37199;SDS011;23096;50.892;16.746;2023-09-30T00:37:41;7.30;;;4.70;;
37199;SDS011;23096;50.892;16.746;2023-09-30T00:40:07;9.80;;;5.10;;
37199;SDS011;23096;50.892;16.746;2023-09-30T00:42:39;9.50;;;4.80;;
37199;SDS011;23096;50.892;16.746;2023-09-30T00:45:07;8.10;;;5.00;;
37199;SDS011;23096;50.892;16.746;2023-09-30T00:47:36;12.80;;;5.20;;
37199;SDS011;23096;50.892;16.746;2023-09-30T00:50:02;6.20;;;4.80;;
37199;SDS011;23096;50.892;16.746;2023-09-30T00:52:33;7.50;;;4.20;;
37199;SDS011;23096;50.892;16.746;2023-09-30T00:55:00;5.60;;;4.90;;
37199;SDS011;23096;50.892;16.746;2023-09-30T00:57:28;7.50;;;4.90;;
37199;SDS011;23096;50.892;16.746;2023-09-30T00:59:55;6.50;;;4.50;;
37199;SDS011;23096;50.892;16.746;2023-09-30T01:02:22;8.80;;;4.80;;
37199;SDS011;23096;50.892;16.746;2023-09-30T01:04:48;7.20;;;3.80;;
37199;SDS011;23096;50.892;16.746;2023-09-30T01:07:15;6.40;;;4.70;;
37199;SDS011;23096;50.892;16.746;2023-09-30T01:09:41;8.60;;;5.20;;
37199;SDS011;23096;50.892;16.746;2023-09-30T01:12:07;6.60;;;4.80;;
37199;SDS011;23096;50.892;16.746;2023-09-30T01:14:34;9.30;;;5.60;;
37199;SDS011;23096;50.892;16.746;2023-09-30T01:17:01;6.60;;;4.60;;
37199;SDS011;23096;50.892;16.746;2023-09-30T01:19:26;7.50;;;5.10;;
37199;SDS011;23096;50.892;16.746;2023-09-30T01:21:56;7.80;;;4.70;;
37199;SDS011;23096;50.892;16.746;2023-09-30T01:24:24;9.40;;;4.60;;
37199;SDS011;23096;50.892;16.746;2023-09-30T01:26:50;7.90;;;4.30;;
37199;SDS011;23096;50.892;16.746;2023-09-30T01:29:16;8.10;;;5.40;;
37199;SDS011;23096;50.892;16.746;2023-09-30T01:31:43;9.40;;;4.50;;
37199;SDS011;23096;50.892;16.746;2023-09-30T01:34:13;8.90;;;5.20;;
37199;SDS011;23096;50.892;16.746;2023-09-30T01:36:40;7.40;;;4.80;;
37199;SDS011;23096;50.892;16.746;2023-09-30T01:39:05;8.80;;;5.00;;
37199;SDS011;23096;50.892;16.746;2023-09-30T01:41:32;5.90;;;4.70;;
37199;SDS011;23096;50.892;16.746;2023-09-30T01:43:58;7.80;;;5.00;;
37199;SDS011;23096;50.892;16.746;2023-09-30T01:46:23;7.40;;;5.00;;
37199;SDS011;23096;50.892;16.746;2023-09-30T01:48:49;6.90;;;4.60;;
37199;SDS011;23096;50.892;16.746;2023-09-30T01:51:15;5.00;;;4.20;;
37199;SDS011;23096;50.892;16.746;2023-09-30T01:53:40;12.10;;;5.20;;
37199;SDS011;23096;50.892;16.746;2023-09-30T01:56:06;7.80;;;4.90;;
37199;SDS011;23096;50.892;16.746;2023-09-30T01:58:31;5.80;;;4.30;;
37199;SDS011;23096;50.892;16.746;2023-09-30T02:01:04;6.20;;;4.50;;
37199;SDS011;23096;50.892;16.746;2023-09-30T02:03:29;7.10;;;4.30;;
37199;SDS011;23096;50.892;16.746;2023-09-30T02:05:58;6.40;;;4.70;;
37199;SDS011;23096;50.892;16.746;2023-09-30T02:08:24;6.10;;;4.70;;
37199;SDS011;23096;50.892;16.746;2023-09-30T02:10:50;7.70;;;5.00;;
37199;SDS011;23096;50.892;16.746;2023-09-30T02:13:19;8.40;;;4.30;;
37199;SDS011;23096;50.892;16.746;2023-09-30T02:15:45;15.60;;;5.10;;
37199;SDS011;23096;50.892;16.746;2023-09-30T02:18:11;7.30;;;5.10;;
37199;SDS011;23096;50.892;16.746;2023-09-30T02:20:37;6.90;;;4.60;;
37199;SDS011;23096;50.892;16.746;2023-09-30T02:23:06;6.20;;;3.90;;
37199;SDS011;23096;50.892;16.746;2023-09-30T02:25:36;7.10;;;5.00;;
37199;SDS011;23096;50.892;16.746;2023-09-30T02:28:05;11.10;;;4.70;;
37199;SDS011;23096;50.892;16.746;2023-09-30T02:30:31;7.30;;;5.00;;
37199;SDS011;23096;50.892;16.746;2023-09-30T02:32:57;7.10;;;4.30;;
37199;SDS011;23096;50.892;16.746;2023-09-30T02:35:24;7.40;;;4.80;;
37199;SDS011;23096;50.892;16.746;2023-09-30T02:37:51;9.90;;;4.90;;
37199;SDS011;23096;50.892;16.746;2023-09-30T02:40:17;6.90;;;4.40;;
37199;SDS011;23096;50.892;16.746;2023-09-30T02:42:45;6.90;;;5.10;;
37199;SDS011;23096;50.892;16.746;2023-09-30T02:45:11;10.40;;;4.60;;
37199;SDS011;23096;50.892;16.746;2023-09-30T02:47:38;5.60;;;4.50;;
37199;SDS011;23096;50.892;16.746;2023-09-30T02:50:05;6.50;;;4.20;;
37199;SDS011;23096;50.892;16.746;2023-09-30T02:52:39;8.20;;;4.20;;
37199;SDS011;23096;50.892;16.746;2023-09-30T02:55:06;10.20;;;4.80;;
37199;SDS011;23096;50.892;16.746;2023-09-30T02:57:36;9.00;;;5.20;;
37199;SDS011;23096;50.892;16.746;2023-09-30T03:00:03;8.10;;;5.10;;
37199;SDS011;23096;50.892;16.746;2023-09-30T03:02:45;6.70;;;4.70;;
37199;SDS011;23096;50.892;16.746;2023-09-30T03:05:11;7.50;;;4.10;;
37199;SDS011;23096;50.892;16.746;2023-09-30T03:07:37;9.30;;;4.30;;
37199;SDS011;23096;50.892;16.746;2023-09-30T03:10:03;7.10;;;4.50;;
37199;SDS011;23096;50.892;16.746;2023-09-30T03:12:34;9.40;;;5.10;;
37199;SDS011;23096;50.892;16.746;2023-09-30T03:15:00;11.10;;;4.80;;
37199;SDS011;23096;50.892;16.746;2023-09-30T03:17:30;9.50;;;4.80;;
37199;SDS011;23096;50.892;16.746;2023-09-30T03:19:57;5.90;;;4.50;;
37199;SDS011;23096;50.892;16.746;2023-09-30T03:22:24;6.90;;;4.30;;
37199;SDS011;23096;50.892;16.746;2023-09-30T03:24:52;11.60;;;4.50;;
37199;SDS011;23096;50.892;16.746;2023-09-30T03:27:19;9.00;;;5.30;;
37199;SDS011;23096;50.892;16.746;2023-09-30T03:29:45;9.70;;;4.80;;
37199;SDS011;23096;50.892;16.746;2023-09-30T03:32:11;11.60;;;6.00;;
37199;SDS011;23096;50.892;16.746;2023-09-30T03:34:37;11.30;;;6.30;;
37199;SDS011;23096;50.892;16.746;2023-09-30T03:37:02;9.50;;;6.70;;
37199;SDS011;23096;50.892;16.746;2023-09-30T03:39:32;12.20;;;7.40;;
37199;SDS011;23096;50.892;16.746;2023-09-30T03:41:57;8.90;;;5.80;;
37199;SDS011;23096;50.892;16.746;2023-09-30T03:44:24;7.30;;;5.50;;
37199;SDS011;23096;50.892;16.746;2023-09-30T03:46:50;9.30;;;5.40;;
37199;SDS011;23096;50.892;16.746;2023-09-30T03:49:18;9.40;;;5.50;;
37199;SDS011;23096;50.892;16.746;2023-09-30T03:51:45;9.10;;;5.30;;
37199;SDS011;23096;50.892;16.746;2023-09-30T03:54:11;9.60;;;5.90;;
37199;SDS011;23096;50.892;16.746;2023-09-30T03:56:36;10.50;;;6.30;;
37199;SDS011;23096;50.892;16.746;2023-09-30T03:59:03;14.10;;;7.70;;
37199;SDS011;23096;50.892;16.746;2023-09-30T04:01:29;13.30;;;6.50;;
37199;SDS011;23096;50.892;16.746;2023-09-30T04:03:56;11.60;;;6.70;;
37199;SDS011;23096;50.892;16.746;2023-09-30T04:06:22;10.60;;;6.20;;
37199;SDS011;23096;50.892;16.746;2023-09-30T04:08:48;8.80;;;5.50;;
37199;SDS011;23096;50.892;16.746;2023-09-30T04:11:13;9.70;;;5.70;;
37199;SDS011;23096;50.892;16.746;2023-09-30T04:13:44;8.40;;;4.70;;
37199;SDS011;23096;50.892;16.746;2023-09-30T04:16:10;12.60;;;5.90;;
37199;SDS011;23096;50.892;16.746;2023-09-30T04:18:35;15.00;;;6.40;;
37199;SDS011;23096;50.892;16.746;2023-09-30T04:21:01;10.10;;;5.30;;
37199;SDS011;23096;50.892;16.746;2023-09-30T04:23:27;9.20;;;4.30;;
37199;SDS011;23096;50.892;16.746;2023-09-30T04:25:53;10.00;;;4.70;;
37199;SDS011;23096;50.892;16.746;2023-09-30T04:28:18;9.10;;;4.60;;
37199;SDS011;23096;50.892;16.746;2023-09-30T04:30:48;8.10;;;4.90;;
37199;SDS011;23096;50.892;16.746;2023-09-30T04:33:15;11.30;;;4.60;;
37199;SDS011;23096;50.892;16.746;2023-09-30T04:35:43;9.60;;;5.00;;
37199;SDS011;23096;50.892;16.746;2023-09-30T04:38:10;9.40;;;4.60;;
37199;SDS011;23096;50.892;16.746;2023-09-30T04:40:35;9.00;;;4.50;;
37199;SDS011;23096;50.892;16.746;2023-09-30T04:43:02;9.50;;;5.10;;
37199;SDS011;23096;50.892;16.746;2023-09-30T04:45:28;9.60;;;4.90;;
37199;SDS011;23096;50.892;16.746;2023-09-30T04:47:54;9.50;;;4.70;;
37199;SDS011;23096;50.892;16.746;2023-09-30T04:50:21;8.60;;;4.40;;
37199;SDS011;23096;50.892;16.746;2023-09-30T04:52:47;12.20;;;5.50;;
37199;SDS011;23096;50.892;16.746;2023-09-30T04:55:13;9.20;;;4.70;;
37199;SDS011;23096;50.892;16.746;2023-09-30T04:57:44;16.80;;;6.00;;
37199;SDS011;23096;50.892;16.746;2023-09-30T05:00:14;10.80;;;4.90;;
37199;SDS011;23096;50.892;16.746;2023-09-30T05:02:47;8.70;;;4.80;;
37199;SDS011;23096;50.892;16.746;2023-09-30T05:05:13;8.00;;;4.50;;
37199;SDS011;23096;50.892;16.746;2023-09-30T05:07:40;10.60;;;4.80;;
37199;SDS011;23096;50.892;16.746;2023-09-30T05:10:06;9.60;;;5.30;;
37199;SDS011;23096;50.892;16.746;2023-09-30T05:12:37;10.10;;;4.90;;
37199;SDS011;23096;50.892;16.746;2023-09-30T05:15:03;8.90;;;4.70;;
37199;SDS011;23096;50.892;16.746;2023-09-30T05:17:31;8.90;;;5.10;;
37199;SDS011;23096;50.892;16.746;2023-09-30T05:19:57;9.80;;;4.90;;
37199;SDS011;23096;50.892;16.746;2023-09-30T05:22:23;12.50;;;5.10;;
37199;SDS011;23096;50.892;16.746;2023-09-30T05:24:52;12.80;;;5.90;;
37199;SDS011;23096;50.892;16.746;2023-09-30T05:27:19;16.00;;;6.00;;
37199;SDS011;23096;50.892;16.746;2023-09-30T05:29:44;13.40;;;6.30;;
37199;SDS011;23096;50.892;16.746;2023-09-30T05:32:10;13.50;;;6.70;;
37199;SDS011;23096;50.892;16.746;2023-09-30T05:34:36;12.90;;;6.90;;
37199;SDS011;23096;50.892;16.746;2023-09-30T05:37:04;11.70;;;6.10;;
37199;SDS011;23096;50.892;16.746;2023-09-30T05:39:30;11.00;;;6.10;;
37199;SDS011;23096;50.892;16.746;2023-09-30T05:41:57;11.00;;;6.50;;
37199;SDS011;23096;50.892;16.746;2023-09-30T05:44:23;11.10;;;6.70;;
37199;SDS011;23096;50.892;16.746;2023-09-30T05:46:48;10.10;;;5.60;;
37199;SDS011;23096;50.892;16.746;2023-09-30T05:49:15;13.00;;;6.70;;
37199;SDS011;23096;50.892;16.746;2023-09-30T05:51:41;10.40;;;6.00;;
37199;SDS011;23096;50.892;16.746;2023-09-30T05:54:07;8.10;;;5.10;;
37199;SDS011;23096;50.892;16.746;2023-09-30T05:56:37;11.00;;;5.10;;
37199;SDS011;23096;50.892;16.746;2023-09-30T05:59:03;11.10;;;3.70;;
37199;SDS011;23096;50.892;16.746;2023-09-30T06:01:30;5.50;;;3.00;;
37199;SDS011;23096;50.892;16.746;2023-09-30T06:03:59;3.00;;;1.90;;
37199;SDS011;23096;50.892;16.746;2023-09-30T06:06:29;3.90;;;1.70;;
37199;SDS011;23096;50.892;16.746;2023-09-30T06:08:55;4.20;;;1.90;;
37199;SDS011;23096;50.892;16.746;2023-09-30T06:11:23;3.00;;;1.60;;
37199;SDS011;23096;50.892;16.746;2023-09-30T06:13:50;3.70;;;1.70;;
37199;SDS011;23096;50.892;16.746;2023-09-30T06:16:18;3.80;;;2.10;;
37199;SDS011;23096;50.892;16.746;2023-09-30T06:18:44;5.80;;;2.50;;
37199;SDS011;23096;50.892;16.746;2023-09-30T06:21:10;4.40;;;1.70;;
37199;SDS011;23096;50.892;16.746;2023-09-30T06:23:36;5.20;;;1.80;;
37199;SDS011;23096;50.892;16.746;2023-09-30T06:26:02;3.50;;;1.60;;
37199;SDS011;23096;50.892;16.746;2023-09-30T06:28:28;2.40;;;1.50;;
37199;SDS011;23096;50.892;16.746;2023-09-30T06:30:56;4.40;;;2.00;;
37199;SDS011;23096;50.892;16.746;2023-09-30T06:33:22;2.70;;;1.20;;
37199;SDS011;23096;50.892;16.746;2023-09-30T06:35:48;8.40;;;1.20;;
37199;SDS011;23096;50.892;16.746;2023-09-30T06:38:20;5.10;;;1.50;;
37199;SDS011;23096;50.892;16.746;2023-09-30T06:40:46;4.10;;;1.40;;
37199;SDS011;23096;50.892;16.746;2023-09-30T06:43:13;3.80;;;1.70;;
37199;SDS011;23096;50.892;16.746;2023-09-30T06:45:41;3.30;;;1.40;;
37199;SDS011;23096;50.892;16.746;2023-09-30T06:48:07;5.70;;;1.30;;
37199;SDS011;23096;50.892;16.746;2023-09-30T06:50:39;2.50;;;1.70;;
37199;SDS011;23096;50.892;16.746;2023-09-30T06:53:17;4.90;;;1.50;;
37199;SDS011;23096;50.892;16.746;2023-09-30T06:55:44;5.20;;;1.80;;
37199;SDS011;23096;50.892;16.746;2023-09-30T06:58:10;5.10;;;2.10;;
37199;SDS011;23096;50.892;16.746;2023-09-30T07:00:37;3.90;;;1.80;;
37199;SDS011;23096;50.892;16.746;2023-09-30T07:03:03;4.90;;;1.90;;
37199;SDS011;23096;50.892;16.746;2023-09-30T07:05:29;4.80;;;1.40;;
37199;SDS011;23096;50.892;16.746;2023-09-30T07:07:54;6.50;;;1.90;;
37199;SDS011;23096;50.892;16.746;2023-09-30T07:10:20;5.70;;;2.00;;
37199;SDS011;23096;50.892;16.746;2023-09-30T07:12:47;2.60;;;1.60;;
37199;SDS011;23096;50.892;16.746;2023-09-30T07:15:13;11.60;;;2.30;;
37199;SDS011;23096;50.892;16.746;2023-09-30T07:17:42;6.90;;;1.90;;
37199;SDS011;23096;50.892;16.746;2023-09-30T07:20:08;3.10;;;1.70;;
37199;SDS011;23096;50.892;16.746;2023-09-30T07:22:35;4.40;;;1.60;;
37199;SDS011;23096;50.892;16.746;2023-09-30T07:25:01;8.00;;;1.60;;
37199;SDS011;23096;50.892;16.746;2023-09-30T07:27:26;4.80;;;1.40;;
37199;SDS011;23096;50.892;16.746;2023-09-30T07:29:52;3.70;;;1.60;;
37199;SDS011;23096;50.892;16.746;2023-09-30T07:32:18;9.30;;;1.70;;
37199;SDS011;23096;50.892;16.746;2023-09-30T07:34:44;5.10;;;1.60;;
37199;SDS011;23096;50.892;16.746;2023-09-30T07:37:09;5.00;;;1.70;;
37199;SDS011;23096;50.892;16.746;2023-09-30T07:39:35;5.20;;;2.00;;
37199;SDS011;23096;50.892;16.746;2023-09-30T07:42:01;3.30;;;2.30;;
37199;SDS011;23096;50.892;16.746;2023-09-30T07:44:28;3.90;;;2.20;;
37199;SDS011;23096;50.892;16.746;2023-09-30T07:46:54;6.40;;;3.00;;
37199;SDS011;23096;50.892;16.746;2023-09-30T07:49:19;6.00;;;3.50;;
37199;SDS011;23096;50.892;16.746;2023-09-30T07:51:45;4.10;;;2.20;;
37199;SDS011;23096;50.892;16.746;2023-09-30T07:54:11;2.80;;;1.80;;
37199;SDS011;23096;50.892;16.746;2023-09-30T07:56:37;3.10;;;2.20;;
37199;SDS011;23096;50.892;16.746;2023-09-30T07:59:03;5.90;;;2.60;;
37199;SDS011;23096;50.892;16.746;2023-09-30T08:01:30;7.20;;;3.30;;
37199;SDS011;23096;50.892;16.746;2023-09-30T08:03:56;5.60;;;3.20;;
37199;SDS011;23096;50.892;16.746;2023-09-30T08:06:22;6.00;;;2.90;;
37199;SDS011;23096;50.892;16.746;2023-09-30T08:08:48;5.10;;;3.30;;
37199;SDS011;23096;50.892;16.746;2023-09-30T08:11:14;9.70;;;4.30;;
37199;SDS011;23096;50.892;16.746;2023-09-30T08:13:40;9.70;;;4.30;;
37199;SDS011;23096;50.892;16.746;2023-09-30T08:16:06;10.70;;;3.70;;
37199;SDS011;23096;50.892;16.746;2023-09-30T08:18:32;8.80;;;3.70;;
37199;SDS011;23096;50.892;16.746;2023-09-30T08:20:58;22.00;;;4.60;;
37199;SDS011;23096;50.892;16.746;2023-09-30T08:23:23;12.80;;;4.40;;
37199;SDS011;23096;50.892;16.746;2023-09-30T08:25:49;5.10;;;3.60;;
37199;SDS011;23096;50.892;16.746;2023-09-30T08:28:14;10.70;;;3.60;;
37199;SDS011;23096;50.892;16.746;2023-09-30T08:30:40;7.20;;;3.00;;
37199;SDS011;23096;50.892;16.746;2023-09-30T08:33:05;7.90;;;3.60;;
37199;SDS011;23096;50.892;16.746;2023-09-30T08:35:38;10.80;;;4.40;;
37199;SDS011;23096;50.892;16.746;2023-09-30T08:38:04;8.10;;;3.50;;
37199;SDS011;23096;50.892;16.746;2023-09-30T08:40:30;7.40;;;3.60;;
37199;SDS011;23096;50.892;16.746;2023-09-30T08:42:56;7.50;;;3.80;;
37199;SDS011;23096;50.892;16.746;2023-09-30T08:45:22;9.20;;;4.10;;
37199;SDS011;23096;50.892;16.746;2023-09-30T08:47:48;8.80;;;4.50;;
37199;SDS011;23096;50.892;16.746;2023-09-30T08:50:16;10.00;;;4.20;;
37199;SDS011;23096;50.892;16.746;2023-09-30T08:52:43;10.00;;;5.70;;
37199;SDS011;23096;50.892;16.746;2023-09-30T08:55:10;6.40;;;4.10;;
37199;SDS011;23096;50.892;16.746;2023-09-30T08:57:37;6.10;;;2.60;;
37199;SDS011;23096;50.892;16.746;2023-09-30T09:00:05;8.40;;;4.00;;
37199;SDS011;23096;50.892;16.746;2023-09-30T09:02:34;8.70;;;3.70;;
37199;SDS011;23096;50.892;16.746;2023-09-30T09:05:00;8.70;;;3.20;;
37199;SDS011;23096;50.892;16.746;2023-09-30T09:07:27;11.60;;;3.20;;
37199;SDS011;23096;50.892;16.746;2023-09-30T09:10:02;9.10;;;3.90;;
37199;SDS011;23096;50.892;16.746;2023-09-30T09:12:38;5.50;;;2.70;;
37199;SDS011;23096;50.892;16.746;2023-09-30T09:15:06;8.20;;;2.90;;
37199;SDS011;23096;50.892;16.746;2023-09-30T09:17:43;9.40;;;2.70;;
37199;SDS011;23096;50.892;16.746;2023-09-30T09:20:10;8.70;;;2.50;;
37199;SDS011;23096;50.892;16.746;2023-09-30T09:25:08;8.20;;;3.00;;
37199;SDS011;23096;50.892;16.746;2023-09-30T09:27:34;9.30;;;2.30;;
37199;SDS011;23096;50.892;16.746;2023-09-30T09:30:22;4.80;;;2.10;;
37199;SDS011;23096;50.892;16.746;2023-09-30T09:35:21;6.40;;;2.70;;
37199;SDS011;23096;50.892;16.746;2023-09-30T09:37:57;6.90;;;2.60;;
37199;SDS011;23096;50.892;16.746;2023-09-30T09:40:25;11.00;;;3.00;;
37199;SDS011;23096;50.892;16.746;2023-09-30T09:42:54;12.80;;;3.00;;
37199;SDS011;23096;50.892;16.746;2023-09-30T09:45:27;10.90;;;2.70;;
37199;SDS011;23096;50.892;16.746;2023-09-30T09:47:53;8.30;;;2.60;;
37199;SDS011;23096;50.892;16.746;2023-09-30T09:50:20;9.20;;;2.70;;
37199;SDS011;23096;50.892;16.746;2023-09-30T09:52:48;9.60;;;2.90;;
37199;SDS011;23096;50.892;16.746;2023-09-30T09:55:19;11.60;;;3.70;;
37199;SDS011;23096;50.892;16.746;2023-09-30T09:57:47;13.10;;;4.50;;
37199;SDS011;23096;50.892;16.746;2023-09-30T10:00:20;14.10;;;3.40;;
37199;SDS011;23096;50.892;16.746;2023-09-30T10:02:49;9.10;;;2.40;;
37199;SDS011;23096;50.892;16.746;2023-09-30T10:05:15;8.20;;;2.10;;
37199;SDS011;23096;50.892;16.746;2023-09-30T10:10:23;15.20;;;3.50;;
37199;SDS011;23096;50.892;16.746;2023-09-30T10:12:50;11.10;;;3.20;;
37199;SDS011;23096;50.892;16.746;2023-09-30T10:18:00;11.50;;;2.80;;
37199;SDS011;23096;50.892;16.746;2023-09-30T10:20:32;10.00;;;3.60;;
37199;SDS011;23096;50.892;16.746;2023-09-30T10:31:16;8.50;;;2.20;;
37199;SDS011;23096;50.892;16.746;2023-09-30T10:36:31;13.90;;;4.10;;
37199;SDS011;23096;50.892;16.746;2023-09-30T10:39:00;10.50;;;3.40;;
37199;SDS011;23096;50.892;16.746;2023-09-30T10:46:53;10.00;;;2.70;;
37199;SDS011;23096;50.892;16.746;2023-09-30T10:51:51;12.40;;;3.30;;
37199;SDS011;23096;50.892;16.746;2023-09-30T10:54:28;7.40;;;3.00;;
37199;SDS011;23096;50.892;16.746;2023-09-30T10:56:55;7.60;;;2.80;;
37199;SDS011;23096;50.892;16.746;2023-09-30T10:59:22;12.50;;;2.80;;
37199;SDS011;23096;50.892;16.746;2023-09-30T11:01:51;8.50;;;2.70;;
37199;SDS011;23096;50.892;16.746;2023-09-30T11:04:21;8.10;;;2.70;;
37199;SDS011;23096;50.892;16.746;2023-09-30T11:06:47;7.60;;;2.60;;
37199;SDS011;23096;50.892;16.746;2023-09-30T11:09:16;10.60;;;3.40;;
37199;SDS011;23096;50.892;16.746;2023-09-30T11:11:43;9.80;;;3.10;;
37199;SDS011;23096;50.892;16.746;2023-09-30T11:14:21;8.60;;;2.50;;
37199;SDS011;23096;50.892;16.746;2023-09-30T11:16:51;9.20;;;2.70;;
37199;SDS011;23096;50.892;16.746;2023-09-30T11:19:19;11.80;;;2.80;;
37199;SDS011;23096;50.892;16.746;2023-09-30T11:21:49;7.50;;;2.20;;
37199;SDS011;23096;50.892;16.746;2023-09-30T11:24:16;7.00;;;2.10;;
37199;SDS011;23096;50.892;16.746;2023-09-30T11:26:43;15.30;;;2.70;;
37199;SDS011;23096;50.892;16.746;2023-09-30T11:29:10;5.80;;;2.00;;
37199;SDS011;23096;50.892;16.746;2023-09-30T11:31:37;12.20;;;2.50;;
37199;SDS011;23096;50.892;16.746;2023-09-30T11:34:03;10.90;;;2.40;;
37199;SDS011;23096;50.892;16.746;2023-09-30T11:36:30;8.80;;;2.50;;
37199;SDS011;23096;50.892;16.746;2023-09-30T11:38:56;10.20;;;3.20;;
37199;SDS011;23096;50.892;16.746;2023-09-30T11:41:22;10.50;;;3.70;;
37199;SDS011;23096;50.892;16.746;2023-09-30T11:43:58;12.20;;;3.30;;
37199;SDS011;23096;50.892;16.746;2023-09-30T11:46:57;9.10;;;2.40;;
37199;SDS011;23096;50.892;16.746;2023-09-30T11:49:34;8.80;;;2.10;;
37199;SDS011;23096;50.892;16.746;2023-09-30T11:52:05;8.40;;;2.70;;
37199;SDS011;23096;50.892;16.746;2023-09-30T11:54:40;9.70;;;2.80;;
37199;SDS011;23096;50.892;16.746;2023-09-30T11:57:08;8.80;;;2.60;;
37199;SDS011;23096;50.892;16.746;2023-09-30T11:59:36;10.00;;;4.00;;
37199;SDS011;23096;50.892;16.746;2023-09-30T12:02:03;10.90;;;2.40;;
37199;SDS011;23096;50.892;16.746;2023-09-30T12:04:31;8.60;;;3.00;;
37199;SDS011;23096;50.892;16.746;2023-09-30T12:06:56;5.80;;;2.20;;
37199;SDS011;23096;50.892;16.746;2023-09-30T12:09:23;8.80;;;2.80;;
37199;SDS011;23096;50.892;16.746;2023-09-30T12:11:52;9.50;;;3.30;;
37199;SDS011;23096;50.892;16.746;2023-09-30T12:14:19;10.80;;;2.90;;
37199;SDS011;23096;50.892;16.746;2023-09-30T12:16:47;12.10;;;3.20;;
37199;SDS011;23096;50.892;16.746;2023-09-30T12:19:13;7.90;;;2.50;;
37199;SDS011;23096;50.892;16.746;2023-09-30T12:21:41;10.30;;;2.70;;
37199;SDS011;23096;50.892;16.746;2023-09-30T12:24:07;8.60;;;2.70;;
37199;SDS011;23096;50.892;16.746;2023-09-30T12:26:37;6.80;;;2.10;;
37199;SDS011;23096;50.892;16.746;2023-09-30T12:29:03;8.80;;;2.40;;
37199;SDS011;23096;50.892;16.746;2023-09-30T12:31:30;8.60;;;3.10;;
37199;SDS011;23096;50.892;16.746;2023-09-30T12:33:56;8.20;;;2.70;;
37199;SDS011;23096;50.892;16.746;2023-09-30T12:36:21;7.60;;;3.00;;
37199;SDS011;23096;50.892;16.746;2023-09-30T12:38:47;7.40;;;2.90;;
37199;SDS011;23096;50.892;16.746;2023-09-30T12:41:13;7.80;;;2.50;;
37199;SDS011;23096;50.892;16.746;2023-09-30T12:43:40;11.00;;;3.50;;
37199;SDS011;23096;50.892;16.746;2023-09-30T12:46:08;9.70;;;3.30;;
37199;SDS011;23096;50.892;16.746;2023-09-30T12:48:34;13.80;;;3.90;;
37199;SDS011;23096;50.892;16.746;2023-09-30T12:50:59;10.00;;;4.00;;
37199;SDS011;23096;50.892;16.746;2023-09-30T12:53:25;7.70;;;2.80;;
37199;SDS011;23096;50.892;16.746;2023-09-30T12:55:51;6.90;;;2.90;;
37199;SDS011;23096;50.892;16.746;2023-09-30T12:58:17;9.90;;;2.80;;
37199;SDS011;23096;50.892;16.746;2023-09-30T13:00:42;10.50;;;2.50;;
37199;SDS011;23096;50.892;16.746;2023-09-30T13:03:09;13.10;;;2.80;;
37199;SDS011;23096;50.892;16.746;2023-09-30T13:05:34;8.00;;;2.40;;
37199;SDS011;23096;50.892;16.746;2023-09-30T13:08:00;8.90;;;2.30;;
37199;SDS011;23096;50.892;16.746;2023-09-30T13:10:26;9.10;;;2.00;;
37199;SDS011;23096;50.892;16.746;2023-09-30T13:12:52;8.90;;;2.70;;
37199;SDS011;23096;50.892;16.746;2023-09-30T13:15:19;9.20;;;2.90;;
37199;SDS011;23096;50.892;16.746;2023-09-30T13:17:45;9.20;;;2.50;;
37199;SDS011;23096;50.892;16.746;2023-09-30T13:20:10;11.00;;;3.10;;
37199;SDS011;23096;50.892;16.746;2023-09-30T13:22:39;8.80;;;2.50;;
37199;SDS011;23096;50.892;16.746;2023-09-30T13:25:05;11.70;;;2.90;;
37199;SDS011;23096;50.892;16.746;2023-09-30T13:27:33;9.70;;;3.70;;
37199;SDS011;23096;50.892;16.746;2023-09-30T13:29:59;6.10;;;2.30;;
37199;SDS011;23096;50.892;16.746;2023-09-30T13:32:26;7.80;;;2.30;;
37199;SDS011;23096;50.892;16.746;2023-09-30T13:34:52;8.80;;;2.20;;
37199;SDS011;23096;50.892;16.746;2023-09-30T13:37:17;8.50;;;2.90;;
37199;SDS011;23096;50.892;16.746;2023-09-30T13:39:43;8.00;;;2.10;;
37199;SDS011;23096;50.892;16.746;2023-09-30T13:42:09;9.20;;;2.40;;
37199;SDS011;23096;50.892;16.746;2023-09-30T13:44:35;10.00;;;2.00;;
37199;SDS011;23096;50.892;16.746;2023-09-30T13:47:01;11.80;;;3.30;;
37199;SDS011;23096;50.892;16.746;2023-09-30T13:49:28;9.10;;;2.30;;
37199;SDS011;23096;50.892;16.746;2023-09-30T13:51:53;9.20;;;2.30;;
37199;SDS011;23096;50.892;16.746;2023-09-30T13:54:19;8.00;;;2.80;;
37199;SDS011;23096;50.892;16.746;2023-09-30T13:56:44;6.90;;;2.00;;
37199;SDS011;23096;50.892;16.746;2023-09-30T13:59:10;6.70;;;2.50;;
37199;SDS011;23096;50.892;16.746;2023-09-30T14:01:36;8.40;;;2.90;;
37199;SDS011;23096;50.892;16.746;2023-09-30T14:04:01;13.60;;;3.50;;
37199;SDS011;23096;50.892;16.746;2023-09-30T14:06:29;11.90;;;2.40;;
37199;SDS011;23096;50.892;16.746;2023-09-30T14:08:55;10.10;;;2.80;;
37199;SDS011;23096;50.892;16.746;2023-09-30T14:11:21;9.20;;;2.20;;
37199;SDS011;23096;50.892;16.746;2023-09-30T14:13:47;6.70;;;2.60;;
37199;SDS011;23096;50.892;16.746;2023-09-30T14:16:14;9.80;;;2.20;;
37199;SDS011;23096;50.892;16.746;2023-09-30T14:18:39;7.60;;;2.30;;
37199;SDS011;23096;50.892;16.746;2023-09-30T14:21:05;5.50;;;2.40;;
37199;SDS011;23096;50.892;16.746;2023-09-30T14:23:31;6.60;;;2.20;;
37199;SDS011;23096;50.892;16.746;2023-09-30T14:25:57;10.00;;;2.30;;
37199;SDS011;23096;50.892;16.746;2023-09-30T14:28:24;8.30;;;2.40;;
37199;SDS011;23096;50.892;16.746;2023-09-30T14:30:50;10.30;;;3.10;;
37199;SDS011;23096;50.892;16.746;2023-09-30T14:33:16;9.80;;;2.90;;
37199;SDS011;23096;50.892;16.746;2023-09-30T14:35:44;6.50;;;2.90;;
37199;SDS011;23096;50.892;16.746;2023-09-30T14:38:10;7.90;;;2.70;;
37199;SDS011;23096;50.892;16.746;2023-09-30T14:40:37;13.80;;;3.40;;
37199;SDS011;23096;50.892;16.746;2023-09-30T14:43:08;8.20;;;2.60;;
37199;SDS011;23096;50.892;16.746;2023-09-30T14:45:38;6.70;;;2.60;;
37199;SDS011;23096;50.892;16.746;2023-09-30T14:48:08;10.00;;;2.60;;
37199;SDS011;23096;50.892;16.746;2023-09-30T14:50:38;7.90;;;2.00;;
37199;SDS011;23096;50.892;16.746;2023-09-30T14:53:13;4.70;;;2.00;;
37199;SDS011;23096;50.892;16.746;2023-09-30T14:55:38;6.40;;;1.90;;
37199;SDS011;23096;50.892;16.746;2023-09-30T14:58:06;7.60;;;2.50;;
37199;SDS011;23096;50.892;16.746;2023-09-30T15:00:31;9.60;;;2.50;;